sensor_id;sensor_type;location;lat;lon;timestamp;P1;durP1;ratioP1;P2;durP2;ratioP2
68072;SDS011;54862;51.502;7.446;2024-02-04T00:01:52;6.15;;;3.65;;
68072;SDS011;54862;51.502;7.446;2024-02-04T00:04:18;8.02;;;4.07;;
68072;SDS011;54862;51.502;7.446;2024-02-04T00:06:44;6.47;;;3.28;;
68072;SDS011;54862;51.502;7.446;2024-02-04T00:09:10;5.63;;;3.75;;
68072;SDS011;54862;51.502;7.446;2024-02-04T00:11:36;6.13;;;3.38;;
68072;SDS011;54862;51.502;7.446;2024-02-04T00:14:02;7.28;;;3.95;;
68072;SDS011;54862;51.502;7.446;2024-02-04T00:16:28;6.35;;;2.88;;
68072;SDS011;54862;51.502;7.446;2024-02-04T00:18:54;6.40;;;3.42;;
68072;SDS011;54862;51.502;7.446;2024-02-04T00:21:20;7.97;;;3.20;;
68072;SDS011;54862;51.502;7.446;2024-02-04T00:23:46;7.70;;;3.03;;
68072;SDS011;54862;51.502;7.446;2024-02-04T00:26:12;5.90;;;3.00;;
68072;SDS011;54862;51.502;7.446;2024-02-04T00:28:38;3.47;;;2.22;;
68072;SDS011;54862;51.502;7.446;2024-02-04T00:31:07;4.28;;;2.33;;
68072;SDS011;54862;51.502;7.446;2024-02-04T00:33:33;4.43;;;2.58;;
68072;SDS011;54862;51.502;7.446;2024-02-04T00:36:02;5.28;;;3.30;;
68072;SDS011;54862;51.502;7.446;2024-02-04T00:38:28;5.25;;;2.75;;
68072;SDS011;54862;51.502;7.446;2024-02-04T00:40:54;7.90;;;3.15;;
68072;SDS011;54862;51.502;7.446;2024-02-04T00:43:21;6.15;;;3.05;;
68072;SDS011;54862;51.502;7.446;2024-02-04T00:45:50;3.80;;;2.90;;
68072;SDS011;54862;51.502;7.446;2024-02-04T00:48:16;5.70;;;2.95;;
68072;SDS011;54862;51.502;7.446;2024-02-04T00:50:42;4.00;;;2.40;;
68072;SDS011;54862;51.502;7.446;2024-02-04T00:53:08;2.83;;;2.17;;
68072;SDS011;54862;51.502;7.446;2024-02-04T00:55:36;1.88;;;1.45;;
68072;SDS011;54862;51.502;7.446;2024-02-04T00:58:02;2.60;;;1.95;;
68072;SDS011;54862;51.502;7.446;2024-02-04T01:00:28;3.67;;;2.50;;
68072;SDS011;54862;51.502;7.446;2024-02-04T01:02:54;2.78;;;1.73;;
68072;SDS011;54862;51.502;7.446;2024-02-04T01:05:20;2.40;;;2.20;;
68072;SDS011;54862;51.502;7.446;2024-02-04T01:07:46;1.65;;;1.42;;
68072;SDS011;54862;51.502;7.446;2024-02-04T01:10:12;2.20;;;1.73;;
68072;SDS011;54862;51.502;7.446;2024-02-04T01:12:38;1.95;;;1.45;;
68072;SDS011;54862;51.502;7.446;2024-02-04T01:15:04;1.88;;;1.67;;
68072;SDS011;54862;51.502;7.446;2024-02-04T01:17:33;3.72;;;2.38;;
68072;SDS011;54862;51.502;7.446;2024-02-04T01:20:02;1.48;;;1.23;;
68072;SDS011;54862;51.502;7.446;2024-02-04T01:22:28;1.50;;;1.40;;
68072;SDS011;54862;51.502;7.446;2024-02-04T01:24:55;1.80;;;1.65;;
68072;SDS011;54862;51.502;7.446;2024-02-04T01:27:20;1.40;;;1.30;;
68072;SDS011;54862;51.502;7.446;2024-02-04T01:29:46;2.88;;;1.63;;
68072;SDS011;54862;51.502;7.446;2024-02-04T01:32:12;1.20;;;1.20;;
68072;SDS011;54862;51.502;7.446;2024-02-04T01:34:41;1.52;;;1.42;;
68072;SDS011;54862;51.502;7.446;2024-02-04T01:37:07;3.60;;;1.63;;
68072;SDS011;54862;51.502;7.446;2024-02-04T01:39:33;1.33;;;1.27;;
68072;SDS011;54862;51.502;7.446;2024-02-04T01:41:59;1.00;;;1.00;;
68072;SDS011;54862;51.502;7.446;2024-02-04T01:44:26;1.00;;;1.00;;
68072;SDS011;54862;51.502;7.446;2024-02-04T01:46:52;1.00;;;1.00;;
68072;SDS011;54862;51.502;7.446;2024-02-04T01:49:21;2.30;;;1.40;;
68072;SDS011;54862;51.502;7.446;2024-02-04T01:51:47;1.00;;;1.00;;
68072;SDS011;54862;51.502;7.446;2024-02-04T01:54:13;1.25;;;1.25;;
68072;SDS011;54862;51.502;7.446;2024-02-04T01:56:42;1.73;;;1.63;;
68072;SDS011;54862;51.502;7.446;2024-02-04T01:59:11;1.30;;;1.20;;
68072;SDS011;54862;51.502;7.446;2024-02-04T02:01:38;1.50;;;1.40;;
68072;SDS011;54862;51.502;7.446;2024-02-04T02:04:04;1.70;;;1.55;;
68072;SDS011;54862;51.502;7.446;2024-02-04T02:06:30;1.40;;;1.30;;
68072;SDS011;54862;51.502;7.446;2024-02-04T02:09:00;1.00;;;1.00;;
68072;SDS011;54862;51.502;7.446;2024-02-04T02:11:32;1.88;;;1.30;;
68072;SDS011;54862;51.502;7.446;2024-02-04T02:14:03;1.40;;;1.30;;
68072;SDS011;54862;51.502;7.446;2024-02-04T02:16:32;1.10;;;1.10;;
68072;SDS011;54862;51.502;7.446;2024-02-04T02:19:10;1.38;;;1.30;;
68072;SDS011;54862;51.502;7.446;2024-02-04T02:26:50;1.00;;;1.00;;
68072;SDS011;54862;51.502;7.446;2024-02-04T02:29:18;2.25;;;1.50;;
68072;SDS011;54862;51.502;7.446;2024-02-04T02:31:44;1.63;;;1.52;;
68072;SDS011;54862;51.502;7.446;2024-02-04T02:34:11;1.95;;;1.75;;
68072;SDS011;54862;51.502;7.446;2024-02-04T02:36:41;2.08;;;1.73;;
68072;SDS011;54862;51.502;7.446;2024-02-04T02:41:37;2.92;;;1.88;;
68072;SDS011;54862;51.502;7.446;2024-02-04T02:44:04;2.03;;;1.80;;
68072;SDS011;54862;51.502;7.446;2024-02-04T02:46:31;4.43;;;2.38;;
68072;SDS011;54862;51.502;7.446;2024-02-04T02:48:57;2.38;;;1.75;;
68072;SDS011;54862;51.502;7.446;2024-02-04T02:51:24;1.58;;;1.42;;
68072;SDS011;54862;51.502;7.446;2024-02-04T02:53:50;1.92;;;1.55;;
68072;SDS011;54862;51.502;7.446;2024-02-04T02:56:16;3.55;;;2.35;;
68072;SDS011;54862;51.502;7.446;2024-02-04T02:58:44;3.95;;;2.20;;
68072;SDS011;54862;51.502;7.446;2024-02-04T03:01:12;5.78;;;2.85;;
68072;SDS011;54862;51.502;7.446;2024-02-04T03:03:38;2.55;;;2.20;;
68072;SDS011;54862;51.502;7.446;2024-02-04T03:06:07;4.90;;;2.42;;
68072;SDS011;54862;51.502;7.446;2024-02-04T03:08:35;2.83;;;2.17;;
68072;SDS011;54862;51.502;7.446;2024-02-04T03:11:01;6.45;;;3.22;;
68072;SDS011;54862;51.502;7.446;2024-02-04T03:13:27;4.15;;;2.35;;
68072;SDS011;54862;51.502;7.446;2024-02-04T03:15:55;8.15;;;3.45;;
68072;SDS011;54862;51.502;7.446;2024-02-04T03:18:21;6.13;;;2.95;;
68072;SDS011;54862;51.502;7.446;2024-02-04T03:20:50;4.47;;;3.35;;
68072;SDS011;54862;51.502;7.446;2024-02-04T03:23:20;6.15;;;3.35;;
68072;SDS011;54862;51.502;7.446;2024-02-04T03:25:46;4.43;;;2.53;;
68072;SDS011;54862;51.502;7.446;2024-02-04T03:28:12;5.00;;;3.10;;
68072;SDS011;54862;51.502;7.446;2024-02-04T03:30:38;6.13;;;4.10;;
68072;SDS011;54862;51.502;7.446;2024-02-04T03:33:04;6.30;;;3.65;;
68072;SDS011;54862;51.502;7.446;2024-02-04T03:35:30;9.32;;;4.53;;
68072;SDS011;54862;51.502;7.446;2024-02-04T03:38:03;7.85;;;3.53;;
68072;SDS011;54862;51.502;7.446;2024-02-04T03:40:29;6.85;;;4.50;;
68072;SDS011;54862;51.502;7.446;2024-02-04T03:42:57;6.30;;;3.03;;
68072;SDS011;54862;51.502;7.446;2024-02-04T03:45:23;5.75;;;3.47;;
68072;SDS011;54862;51.502;7.446;2024-02-04T03:47:49;5.28;;;3.00;;
68072;SDS011;54862;51.502;7.446;2024-02-04T03:50:18;7.13;;;4.15;;
68072;SDS011;54862;51.502;7.446;2024-02-04T03:52:46;4.43;;;3.40;;
68072;SDS011;54862;51.502;7.446;2024-02-04T03:55:14;7.90;;;5.10;;
68072;SDS011;54862;51.502;7.446;2024-02-04T03:57:40;7.63;;;3.33;;
68072;SDS011;54862;51.502;7.446;2024-02-04T04:00:07;9.52;;;4.50;;
68072;SDS011;54862;51.502;7.446;2024-02-04T04:02:36;8.75;;;3.67;;
68072;SDS011;54862;51.502;7.446;2024-02-04T04:05:02;10.20;;;5.38;;
68072;SDS011;54862;51.502;7.446;2024-02-04T04:07:28;10.05;;;4.28;;
68072;SDS011;54862;51.502;7.446;2024-02-04T04:09:54;8.15;;;3.90;;
68072;SDS011;54862;51.502;7.446;2024-02-04T04:12:20;8.38;;;4.00;;
68072;SDS011;54862;51.502;7.446;2024-02-04T04:14:46;7.85;;;4.80;;
68072;SDS011;54862;51.502;7.446;2024-02-04T04:17:12;5.68;;;3.42;;
68072;SDS011;54862;51.502;7.446;2024-02-04T04:19:40;7.32;;;3.88;;
68072;SDS011;54862;51.502;7.446;2024-02-04T04:22:06;4.55;;;2.92;;
68072;SDS011;54862;51.502;7.446;2024-02-04T04:24:32;6.18;;;3.08;;
68072;SDS011;54862;51.502;7.446;2024-02-04T04:27:00;15.13;;;4.18;;
68072;SDS011;54862;51.502;7.446;2024-02-04T04:29:26;12.05;;;3.95;;
68072;SDS011;54862;51.502;7.446;2024-02-04T04:31:52;8.45;;;4.72;;
68072;SDS011;54862;51.502;7.446;2024-02-04T04:34:21;12.20;;;4.80;;
68072;SDS011;54862;51.502;7.446;2024-02-04T04:36:51;6.03;;;3.65;;
68072;SDS011;54862;51.502;7.446;2024-02-04T04:39:17;4.38;;;2.65;;
68072;SDS011;54862;51.502;7.446;2024-02-04T04:41:45;8.35;;;4.05;;
68072;SDS011;54862;51.502;7.446;2024-02-04T04:44:11;9.88;;;5.22;;
68072;SDS011;54862;51.502;7.446;2024-02-04T04:46:38;6.88;;;3.72;;
68072;SDS011;54862;51.502;7.446;2024-02-04T04:49:04;9.98;;;4.05;;
68072;SDS011;54862;51.502;7.446;2024-02-04T04:51:30;8.32;;;3.53;;
68072;SDS011;54862;51.502;7.446;2024-02-04T04:53:57;13.50;;;4.53;;
68072;SDS011;54862;51.502;7.446;2024-02-04T04:56:23;10.63;;;4.20;;
68072;SDS011;54862;51.502;7.446;2024-02-04T04:58:51;4.60;;;3.10;;
68072;SDS011;54862;51.502;7.446;2024-02-04T05:01:17;8.73;;;4.20;;
68072;SDS011;54862;51.502;7.446;2024-02-04T05:03:43;8.05;;;4.25;;
68072;SDS011;54862;51.502;7.446;2024-02-04T05:06:10;8.05;;;3.95;;
68072;SDS011;54862;51.502;7.446;2024-02-04T05:08:36;10.35;;;4.18;;
68072;SDS011;54862;51.502;7.446;2024-02-04T05:11:02;11.10;;;4.50;;
68072;SDS011;54862;51.502;7.446;2024-02-04T05:13:28;8.88;;;3.75;;
68072;SDS011;54862;51.502;7.446;2024-02-04T05:15:54;7.15;;;4.05;;
68072;SDS011;54862;51.502;7.446;2024-02-04T05:18:20;6.28;;;3.60;;
68072;SDS011;54862;51.502;7.446;2024-02-04T05:20:49;6.65;;;4.35;;
68072;SDS011;54862;51.502;7.446;2024-02-04T05:23:15;8.35;;;3.88;;
68072;SDS011;54862;51.502;7.446;2024-02-04T05:25:43;10.93;;;5.15;;
68072;SDS011;54862;51.502;7.446;2024-02-04T05:28:09;6.47;;;4.25;;
68072;SDS011;54862;51.502;7.446;2024-02-04T05:30:35;6.65;;;4.00;;
68072;SDS011;54862;51.502;7.446;2024-02-04T05:33:01;6.47;;;3.85;;
68072;SDS011;54862;51.502;7.446;2024-02-04T05:35:27;8.95;;;4.85;;
68072;SDS011;54862;51.502;7.446;2024-02-04T05:37:53;11.93;;;4.72;;
68072;SDS011;54862;51.502;7.446;2024-02-04T05:40:19;8.52;;;3.78;;
68072;SDS011;54862;51.502;7.446;2024-02-04T05:42:45;5.68;;;3.35;;
68072;SDS011;54862;51.502;7.446;2024-02-04T05:45:11;7.63;;;4.45;;
68072;SDS011;54862;51.502;7.446;2024-02-04T05:47:37;8.00;;;3.88;;
68072;SDS011;54862;51.502;7.446;2024-02-04T05:50:03;7.63;;;3.72;;
68072;SDS011;54862;51.502;7.446;2024-02-04T05:52:32;6.63;;;3.35;;
68072;SDS011;54862;51.502;7.446;2024-02-04T05:54:58;6.28;;;3.10;;
68072;SDS011;54862;51.502;7.446;2024-02-04T05:57:24;7.68;;;4.15;;
68072;SDS011;54862;51.502;7.446;2024-02-04T05:59:50;9.95;;;3.85;;
68072;SDS011;54862;51.502;7.446;2024-02-04T06:02:17;10.20;;;4.95;;
68072;SDS011;54862;51.502;7.446;2024-02-04T06:04:43;8.75;;;4.68;;
68072;SDS011;54862;51.502;7.446;2024-02-04T06:07:10;7.43;;;4.10;;
68072;SDS011;54862;51.502;7.446;2024-02-04T06:09:39;9.70;;;4.63;;
68072;SDS011;54862;51.502;7.446;2024-02-04T06:12:05;11.02;;;4.88;;
68072;SDS011;54862;51.502;7.446;2024-02-04T06:14:32;6.90;;;3.28;;
68072;SDS011;54862;51.502;7.446;2024-02-04T06:16:59;6.50;;;3.20;;
68072;SDS011;54862;51.502;7.446;2024-02-04T06:19:28;11.43;;;4.13;;
68072;SDS011;54862;51.502;7.446;2024-02-04T06:21:54;5.97;;;3.40;;
68072;SDS011;54862;51.502;7.446;2024-02-04T06:24:22;8.13;;;3.63;;
68072;SDS011;54862;51.502;7.446;2024-02-04T06:26:50;7.18;;;4.00;;
68072;SDS011;54862;51.502;7.446;2024-02-04T06:29:16;7.70;;;4.15;;
68072;SDS011;54862;51.502;7.446;2024-02-04T06:31:45;4.72;;;3.13;;
68072;SDS011;54862;51.502;7.446;2024-02-04T06:34:16;4.45;;;3.08;;
68072;SDS011;54862;51.502;7.446;2024-02-04T06:36:42;5.20;;;2.97;;
68072;SDS011;54862;51.502;7.446;2024-02-04T06:39:11;10.63;;;4.45;;
68072;SDS011;54862;51.502;7.446;2024-02-04T06:41:37;7.65;;;3.30;;
68072;SDS011;54862;51.502;7.446;2024-02-04T06:44:03;7.85;;;3.35;;
68072;SDS011;54862;51.502;7.446;2024-02-04T06:46:29;8.00;;;3.72;;
68072;SDS011;54862;51.502;7.446;2024-02-04T06:48:58;9.10;;;5.22;;
68072;SDS011;54862;51.502;7.446;2024-02-04T06:51:24;10.18;;;5.35;;
68072;SDS011;54862;51.502;7.446;2024-02-04T06:53:52;13.55;;;5.03;;
68072;SDS011;54862;51.502;7.446;2024-02-04T06:56:18;11.23;;;5.05;;
68072;SDS011;54862;51.502;7.446;2024-02-04T06:58:44;8.88;;;4.85;;
68072;SDS011;54862;51.502;7.446;2024-02-04T07:01:11;11.55;;;5.45;;
68072;SDS011;54862;51.502;7.446;2024-02-04T07:03:37;8.50;;;4.22;;
68072;SDS011;54862;51.502;7.446;2024-02-04T07:06:03;9.75;;;3.97;;
68072;SDS011;54862;51.502;7.446;2024-02-04T07:08:29;13.18;;;4.80;;
68072;SDS011;54862;51.502;7.446;2024-02-04T07:10:55;9.13;;;4.25;;
68072;SDS011;54862;51.502;7.446;2024-02-04T07:13:21;8.50;;;3.05;;
68072;SDS011;54862;51.502;7.446;2024-02-04T07:15:47;5.80;;;3.92;;
68072;SDS011;54862;51.502;7.446;2024-02-04T07:18:17;8.02;;;3.30;;
68072;SDS011;54862;51.502;7.446;2024-02-04T07:20:46;7.68;;;3.22;;
68072;SDS011;54862;51.502;7.446;2024-02-04T07:23:13;5.85;;;3.08;;
68072;SDS011;54862;51.502;7.446;2024-02-04T07:25:41;6.90;;;4.10;;
68072;SDS011;54862;51.502;7.446;2024-02-04T07:28:07;6.35;;;3.22;;
68072;SDS011;54862;51.502;7.446;2024-02-04T07:30:33;6.38;;;3.95;;
68072;SDS011;54862;51.502;7.446;2024-02-04T07:32:59;7.05;;;2.88;;
68072;SDS011;54862;51.502;7.446;2024-02-04T07:35:27;14.82;;;2.88;;
68072;SDS011;54862;51.502;7.446;2024-02-04T07:37:53;7.95;;;3.60;;
68072;SDS011;54862;51.502;7.446;2024-02-04T07:40:19;6.28;;;3.22;;
68072;SDS011;54862;51.502;7.446;2024-02-04T07:42:45;6.85;;;4.13;;
68072;SDS011;54862;51.502;7.446;2024-02-04T07:45:11;7.95;;;3.72;;
68072;SDS011;54862;51.502;7.446;2024-02-04T07:47:37;5.28;;;3.45;;
68072;SDS011;54862;51.502;7.446;2024-02-04T07:50:05;8.80;;;3.47;;
68072;SDS011;54862;51.502;7.446;2024-02-04T07:52:32;9.20;;;5.00;;
68072;SDS011;54862;51.502;7.446;2024-02-04T07:54:58;6.90;;;3.72;;
68072;SDS011;54862;51.502;7.446;2024-02-04T07:57:24;10.30;;;4.15;;
68072;SDS011;54862;51.502;7.446;2024-02-04T07:59:50;7.00;;;3.42;;
68072;SDS011;54862;51.502;7.446;2024-02-04T08:02:17;4.47;;;3.03;;
68072;SDS011;54862;51.502;7.446;2024-02-04T08:04:45;6.57;;;3.30;;
68072;SDS011;54862;51.502;7.446;2024-02-04T08:07:11;6.45;;;3.78;;
68072;SDS011;54862;51.502;7.446;2024-02-04T08:09:42;5.80;;;3.30;;
68072;SDS011;54862;51.502;7.446;2024-02-04T08:12:10;7.63;;;3.88;;
68072;SDS011;54862;51.502;7.446;2024-02-04T08:14:37;10.27;;;4.97;;
68072;SDS011;54862;51.502;7.446;2024-02-04T08:17:03;5.70;;;2.90;;
68072;SDS011;54862;51.502;7.446;2024-02-04T08:19:29;17.95;;;3.70;;
68072;SDS011;54862;51.502;7.446;2024-02-04T08:21:55;7.65;;;3.50;;
68072;SDS011;54862;51.502;7.446;2024-02-04T08:24:23;5.07;;;2.67;;
68072;SDS011;54862;51.502;7.446;2024-02-04T08:26:49;6.55;;;3.40;;
68072;SDS011;54862;51.502;7.446;2024-02-04T08:29:15;4.47;;;2.90;;
68072;SDS011;54862;51.502;7.446;2024-02-04T08:31:41;5.10;;;2.72;;
68072;SDS011;54862;51.502;7.446;2024-02-04T08:34:07;7.30;;;3.13;;
68072;SDS011;54862;51.502;7.446;2024-02-04T08:36:34;3.47;;;2.08;;
68072;SDS011;54862;51.502;7.446;2024-02-04T08:39:00;4.82;;;2.00;;
68072;SDS011;54862;51.502;7.446;2024-02-04T08:41:28;4.13;;;2.05;;
68072;SDS011;54862;51.502;7.446;2024-02-04T08:43:54;4.82;;;2.65;;
68072;SDS011;54862;51.502;7.446;2024-02-04T08:46:20;6.28;;;3.03;;
68072;SDS011;54862;51.502;7.446;2024-02-04T08:48:46;3.53;;;2.33;;
68072;SDS011;54862;51.502;7.446;2024-02-04T08:51:14;4.93;;;3.00;;
68072;SDS011;54862;51.502;7.446;2024-02-04T08:53:41;3.58;;;2.42;;
68072;SDS011;54862;51.502;7.446;2024-02-04T08:56:07;2.78;;;1.92;;
68072;SDS011;54862;51.502;7.446;2024-02-04T08:58:34;3.20;;;2.03;;
68072;SDS011;54862;51.502;7.446;2024-02-04T09:01:04;4.85;;;2.78;;
68072;SDS011;54862;51.502;7.446;2024-02-04T09:03:30;4.38;;;2.83;;
68072;SDS011;54862;51.502;7.446;2024-02-04T09:05:57;3.83;;;2.42;;
68072;SDS011;54862;51.502;7.446;2024-02-04T09:08:23;5.47;;;2.70;;
68072;SDS011;54862;51.502;7.446;2024-02-04T09:10:49;5.03;;;2.22;;
68072;SDS011;54862;51.502;7.446;2024-02-04T09:13:16;3.78;;;2.33;;
68072;SDS011;54862;51.502;7.446;2024-02-04T09:15:44;4.60;;;2.75;;
68072;SDS011;54862;51.502;7.446;2024-02-04T09:18:10;3.40;;;2.20;;
68072;SDS011;54862;51.502;7.446;2024-02-04T09:20:36;7.10;;;2.40;;
68072;SDS011;54862;51.502;7.446;2024-02-04T09:23:02;3.45;;;2.35;;
68072;SDS011;54862;51.502;7.446;2024-02-04T09:25:30;3.83;;;2.65;;
68072;SDS011;54862;51.502;7.446;2024-02-04T09:27:56;3.45;;;2.25;;
68072;SDS011;54862;51.502;7.446;2024-02-04T09:30:22;4.82;;;2.78;;
68072;SDS011;54862;51.502;7.446;2024-02-04T09:32:48;5.15;;;2.08;;
68072;SDS011;54862;51.502;7.446;2024-02-04T09:35:14;1.63;;;1.52;;
68072;SDS011;54862;51.502;7.446;2024-02-04T09:37:41;3.65;;;1.67;;
68072;SDS011;54862;51.502;7.446;2024-02-04T09:40:07;4.10;;;2.40;;
68072;SDS011;54862;51.502;7.446;2024-02-04T09:42:33;2.50;;;1.30;;
68072;SDS011;54862;51.502;7.446;2024-02-04T09:44:59;2.28;;;1.83;;
68072;SDS011;54862;51.502;7.446;2024-02-04T09:47:25;5.30;;;1.88;;
68072;SDS011;54862;51.502;7.446;2024-02-04T09:49:52;3.13;;;1.60;;
68072;SDS011;54862;51.502;7.446;2024-02-04T09:52:21;1.80;;;1.70;;
68072;SDS011;54862;51.502;7.446;2024-02-04T09:54:59;1.15;;;1.13;;
68072;SDS011;54862;51.502;7.446;2024-02-04T09:57:25;2.13;;;1.55;;
68072;SDS011;54862;51.502;7.446;2024-02-04T09:59:51;1.58;;;1.48;;
68072;SDS011;54862;51.502;7.446;2024-02-04T10:02:20;2.50;;;2.10;;
68072;SDS011;54862;51.502;7.446;2024-02-04T10:04:46;1.50;;;1.40;;
68072;SDS011;54862;51.502;7.446;2024-02-04T10:07:12;3.97;;;2.40;;
68072;SDS011;54862;51.502;7.446;2024-02-04T10:09:41;4.00;;;2.20;;
68072;SDS011;54862;51.502;7.446;2024-02-04T10:12:10;5.95;;;2.05;;
68072;SDS011;54862;51.502;7.446;2024-02-04T10:14:38;6.68;;;3.17;;
68072;SDS011;54862;51.502;7.446;2024-02-04T10:17:04;4.32;;;2.88;;
68072;SDS011;54862;51.502;7.446;2024-02-04T10:19:30;3.53;;;2.40;;
68072;SDS011;54862;51.502;7.446;2024-02-04T10:21:58;3.83;;;1.60;;
68072;SDS011;54862;51.502;7.446;2024-02-04T10:24:24;2.13;;;1.52;;
68072;SDS011;54862;51.502;7.446;2024-02-04T10:26:50;4.63;;;2.78;;
68072;SDS011;54862;51.502;7.446;2024-02-04T10:29:18;1.40;;;1.30;;
68072;SDS011;54862;51.502;7.446;2024-02-04T10:31:44;1.95;;;1.75;;
68072;SDS011;54862;51.502;7.446;2024-02-04T10:34:10;4.95;;;2.53;;
68072;SDS011;54862;51.502;7.446;2024-02-04T10:36:36;4.05;;;2.10;;
68072;SDS011;54862;51.502;7.446;2024-02-04T10:39:03;5.90;;;2.60;;
68072;SDS011;54862;51.502;7.446;2024-02-04T10:41:29;5.75;;;3.00;;
68072;SDS011;54862;51.502;7.446;2024-02-04T10:43:57;4.60;;;2.13;;
68072;SDS011;54862;51.502;7.446;2024-02-04T10:46:24;1.90;;;1.65;;
68072;SDS011;54862;51.502;7.446;2024-02-04T10:48:56;3.45;;;2.38;;
68072;SDS011;54862;51.502;7.446;2024-02-04T10:51:26;3.58;;;2.08;;
68072;SDS011;54862;51.502;7.446;2024-02-04T10:53:55;4.40;;;2.05;;
68072;SDS011;54862;51.502;7.446;2024-02-04T10:56:22;4.75;;;2.58;;
68072;SDS011;54862;51.502;7.446;2024-02-04T10:58:51;3.75;;;2.65;;
68072;SDS011;54862;51.502;7.446;2024-02-04T11:01:20;4.07;;;2.42;;
68072;SDS011;54862;51.502;7.446;2024-02-04T11:03:47;4.22;;;2.85;;
68072;SDS011;54862;51.502;7.446;2024-02-04T11:06:14;3.45;;;2.45;;
68072;SDS011;54862;51.502;7.446;2024-02-04T11:08:40;5.20;;;2.70;;
68072;SDS011;54862;51.502;7.446;2024-02-04T11:11:06;2.47;;;1.90;;
68072;SDS011;54862;51.502;7.446;2024-02-04T11:13:32;6.57;;;2.70;;
68072;SDS011;54862;51.502;7.446;2024-02-04T11:16:01;3.88;;;2.75;;
68072;SDS011;54862;51.502;7.446;2024-02-04T11:18:42;9.25;;;2.75;;
68072;SDS011;54862;51.502;7.446;2024-02-04T11:26:19;2.63;;;2.15;;
68072;SDS011;54862;51.502;7.446;2024-02-04T11:28:49;4.75;;;3.72;;
68072;SDS011;54862;51.502;7.446;2024-02-04T11:31:17;4.15;;;2.47;;
68072;SDS011;54862;51.502;7.446;2024-02-04T11:33:44;4.20;;;2.05;;
68072;SDS011;54862;51.502;7.446;2024-02-04T11:36:14;5.45;;;1.92;;
68072;SDS011;54862;51.502;7.446;2024-02-04T11:38:40;5.35;;;3.08;;
68072;SDS011;54862;51.502;7.446;2024-02-04T11:41:06;1.63;;;1.33;;
68072;SDS011;54862;51.502;7.446;2024-02-04T11:43:38;6.07;;;2.60;;
68072;SDS011;54862;51.502;7.446;2024-02-04T11:46:06;3.15;;;1.95;;
68072;SDS011;54862;51.502;7.446;2024-02-04T11:48:32;2.53;;;2.05;;
68072;SDS011;54862;51.502;7.446;2024-02-04T11:50:59;3.47;;;2.08;;
68072;SDS011;54862;51.502;7.446;2024-02-04T11:53:28;2.75;;;2.22;;
68072;SDS011;54862;51.502;7.446;2024-02-04T11:56:00;4.65;;;2.30;;
68072;SDS011;54862;51.502;7.446;2024-02-04T11:58:28;4.32;;;2.53;;
68072;SDS011;54862;51.502;7.446;2024-02-04T12:00:56;5.88;;;3.33;;
68072;SDS011;54862;51.502;7.446;2024-02-04T12:03:32;4.07;;;2.35;;
68072;SDS011;54862;51.502;7.446;2024-02-04T12:05:59;3.17;;;2.20;;
68072;SDS011;54862;51.502;7.446;2024-02-04T12:08:29;2.15;;;1.70;;
68072;SDS011;54862;51.502;7.446;2024-02-04T12:10:56;1.73;;;1.58;;
68072;SDS011;54862;51.502;7.446;2024-02-04T12:13:22;1.80;;;1.40;;
68072;SDS011;54862;51.502;7.446;2024-02-04T12:15:49;2.85;;;2.03;;
68072;SDS011;54862;51.502;7.446;2024-02-04T12:18:20;1.38;;;1.30;;
68072;SDS011;54862;51.502;7.446;2024-02-04T12:20:48;3.70;;;2.08;;
68072;SDS011;54862;51.502;7.446;2024-02-04T12:23:15;2.83;;;1.70;;
68072;SDS011;54862;51.502;7.446;2024-02-04T12:25:45;1.50;;;1.40;;
68072;SDS011;54862;51.502;7.446;2024-02-04T12:28:11;1.52;;;1.48;;
68072;SDS011;54862;51.502;7.446;2024-02-04T12:30:51;1.75;;;1.60;;
68072;SDS011;54862;51.502;7.446;2024-02-04T12:33:18;1.63;;;1.52;;
68072;SDS011;54862;51.502;7.446;2024-02-04T12:35:48;1.45;;;1.38;;
68072;SDS011;54862;51.502;7.446;2024-02-04T12:38:15;1.50;;;1.40;;
68072;SDS011;54862;51.502;7.446;2024-02-04T12:40:44;1.60;;;1.50;;
68072;SDS011;54862;51.502;7.446;2024-02-04T12:43:11;4.25;;;3.00;;
68072;SDS011;54862;51.502;7.446;2024-02-04T12:45:39;1.75;;;1.60;;
68072;SDS011;54862;51.502;7.446;2024-02-04T12:48:05;3.17;;;2.15;;
68072;SDS011;54862;51.502;7.446;2024-02-04T12:50:32;2.60;;;2.28;;
68072;SDS011;54862;51.502;7.446;2024-02-04T12:53:04;4.57;;;2.58;;
68072;SDS011;54862;51.502;7.446;2024-02-04T12:55:30;2.60;;;2.13;;
68072;SDS011;54862;51.502;7.446;2024-02-04T12:58:07;2.72;;;2.25;;
68072;SDS011;54862;51.502;7.446;2024-02-04T13:00:34;4.72;;;2.83;;
68072;SDS011;54862;51.502;7.446;2024-02-04T13:03:00;5.55;;;3.30;;
68072;SDS011;54862;51.502;7.446;2024-02-04T13:05:29;6.30;;;3.22;;
68072;SDS011;54862;51.502;7.446;2024-02-04T13:07:57;4.13;;;2.50;;
68072;SDS011;54862;51.502;7.446;2024-02-04T13:10:27;4.85;;;3.13;;
68072;SDS011;54862;51.502;7.446;2024-02-04T13:15:29;7.35;;;3.08;;
68072;SDS011;54862;51.502;7.446;2024-02-04T13:17:57;4.80;;;3.10;;
68072;SDS011;54862;51.502;7.446;2024-02-04T13:20:26;6.18;;;3.55;;
68072;SDS011;54862;51.502;7.446;2024-02-04T13:22:52;3.83;;;2.88;;
68072;SDS011;54862;51.502;7.446;2024-02-04T13:25:19;4.63;;;3.05;;
68072;SDS011;54862;51.502;7.446;2024-02-04T13:27:46;5.68;;;3.05;;
68072;SDS011;54862;51.502;7.446;2024-02-04T13:30:15;4.65;;;2.72;;
68072;SDS011;54862;51.502;7.446;2024-02-04T13:32:42;5.72;;;3.17;;
68072;SDS011;54862;51.502;7.446;2024-02-04T13:35:10;4.63;;;3.03;;
68072;SDS011;54862;51.502;7.446;2024-02-04T13:37:40;4.28;;;2.88;;
68072;SDS011;54862;51.502;7.446;2024-02-04T13:40:06;4.13;;;2.88;;
68072;SDS011;54862;51.502;7.446;2024-02-04T13:42:33;3.00;;;2.60;;
68072;SDS011;54862;51.502;7.446;2024-02-04T13:45:02;3.30;;;2.15;;
68072;SDS011;54862;51.502;7.446;2024-02-04T13:47:30;4.00;;;2.38;;
68072;SDS011;54862;51.502;7.446;2024-02-04T13:49:56;4.60;;;3.00;;
68072;SDS011;54862;51.502;7.446;2024-02-04T13:52:27;4.80;;;2.67;;
68072;SDS011;54862;51.502;7.446;2024-02-04T13:54:53;3.35;;;2.20;;
68072;SDS011;54862;51.502;7.446;2024-02-04T13:57:19;3.92;;;2.83;;
68072;SDS011;54862;51.502;7.446;2024-02-04T13:59:45;6.32;;;2.13;;
68072;SDS011;54862;51.502;7.446;2024-02-04T14:02:13;4.13;;;2.38;;
68072;SDS011;54862;51.502;7.446;2024-02-04T14:04:39;2.67;;;2.15;;
68072;SDS011;54862;51.502;7.446;2024-02-04T14:07:05;2.38;;;1.67;;
68072;SDS011;54862;51.502;7.446;2024-02-04T14:09:31;4.88;;;2.67;;
68072;SDS011;54862;51.502;7.446;2024-02-04T14:11:57;5.03;;;3.00;;
68072;SDS011;54862;51.502;7.446;2024-02-04T14:14:23;2.38;;;1.90;;
68072;SDS011;54862;51.502;7.446;2024-02-04T14:16:54;2.70;;;1.75;;
68072;SDS011;54862;51.502;7.446;2024-02-04T14:19:20;2.67;;;1.92;;
68072;SDS011;54862;51.502;7.446;2024-02-04T14:21:46;4.35;;;2.08;;
68072;SDS011;54862;51.502;7.446;2024-02-04T14:24:14;5.50;;;2.72;;
68072;SDS011;54862;51.502;7.446;2024-02-04T14:26:41;5.10;;;2.35;;
68072;SDS011;54862;51.502;7.446;2024-02-04T14:29:08;5.40;;;2.67;;
68072;SDS011;54862;51.502;7.446;2024-02-04T14:31:34;5.20;;;2.63;;
68072;SDS011;54862;51.502;7.446;2024-02-04T14:34:00;3.53;;;2.47;;
68072;SDS011;54862;51.502;7.446;2024-02-04T14:36:26;4.25;;;2.25;;
68072;SDS011;54862;51.502;7.446;2024-02-04T14:38:53;4.80;;;2.35;;
68072;SDS011;54862;51.502;7.446;2024-02-04T14:41:19;3.30;;;2.22;;
68072;SDS011;54862;51.502;7.446;2024-02-04T14:43:49;3.20;;;2.40;;
68072;SDS011;54862;51.502;7.446;2024-02-04T14:46:15;4.75;;;2.50;;
68072;SDS011;54862;51.502;7.446;2024-02-04T14:48:42;2.90;;;2.03;;
68072;SDS011;54862;51.502;7.446;2024-02-04T14:51:11;2.78;;;1.88;;
68072;SDS011;54862;51.502;7.446;2024-02-04T14:53:37;2.85;;;1.70;;
68072;SDS011;54862;51.502;7.446;2024-02-04T14:56:03;2.40;;;1.67;;
68072;SDS011;54862;51.502;7.446;2024-02-04T14:58:29;6.55;;;3.47;;
68072;SDS011;54862;51.502;7.446;2024-02-04T15:00:55;4.50;;;2.78;;
68072;SDS011;54862;51.502;7.446;2024-02-04T15:03:22;4.80;;;2.28;;